VRG2746 SBPA-SBGR
Flight info
| Callsign | VRG2746 |
|---|---|
| Flight time | 1h 26m |
| Altitude | 37000 |
| Route | ARTIL UZ104 SAVLU UZ121 BUXUK |
| Aircraft | B772/H-SDE2E3FGHIJ5LORVWXY/LB1D1 |
Departure
| Time | 2026-05-08 12:35 |
|---|---|
| Airport | Porto Alegre-Salgado Filho International Airport (SBPA) |
Arrival
| Time | 2026-05-08 14:01 |
|---|---|
| Airport | São Paulo/Guarulhos–Governor André Franco Montoro International Airport (SBGR) |
| Time | Latitude | Longitude | Altitude | Speed | Heading |
|---|---|---|---|---|---|
| 2026-05-08 12:22 | -29.99009 | -51.17970 | 23 ft | 0 kts | 196° |
| 2026-05-08 12:23 | -29.99060 | -51.17989 | 20 ft | 19 kts | 201° |
| 2026-05-08 12:23 | -29.99181 | -51.18061 | 20 ft | 20 kts | 210° |
| 2026-05-08 12:23 | -29.99270 | -51.18176 | 20 ft | 12 kts | 220° |
| 2026-05-08 12:24 | -29.99308 | -51.18200 | 23 ft | 9 kts | 207° |
| 2026-05-08 12:24 | -29.99366 | -51.18234 | 22 ft | 9 kts | 207° |
| 2026-05-08 12:24 | -29.99416 | -51.18264 | 24 ft | 1 kts | 203° |
| 2026-05-08 12:24 | -29.99450 | -51.18257 | 24 ft | 3 kts | 143° |
| 2026-05-08 12:25 | -29.99458 | -51.18224 | 25 ft | 0 kts | 83° |
| 2026-05-08 12:28 | -29.99458 | -51.18225 | 25 ft | 0 kts | 83° |
| 2026-05-08 12:34 | -29.99450 | -51.18151 | 26 ft | 32 kts | 85° |
| 2026-05-08 12:34 | -29.99451 | -51.17564 | 25 ft | 112 kts | 91° |
| 2026-05-08 12:34 | -29.99468 | -51.16396 | 35 ft | 178 kts | 89° |
| 2026-05-08 12:35 | -29.99484 | -51.14883 | 580 ft | 197 kts | 90° |
| 2026-05-08 12:35 | -29.99380 | -51.13325 | 1542 ft | 194 kts | 66° |
| 2026-05-08 12:35 | -29.98617 | -51.12067 | 2099 ft | 197 kts | 27° |
| 2026-05-08 12:35 | -29.97324 | -51.11558 | 2324 ft | 203 kts | 353° |
| 2026-05-08 12:36 | -29.95882 | -51.11751 | 2590 ft | 215 kts | 343° |
| 2026-05-08 12:36 | -29.94353 | -51.12093 | 2980 ft | 232 kts | 342° |
| 2026-05-08 12:36 | -29.92749 | -51.12480 | 3642 ft | 240 kts | 342° |
| 2026-05-08 12:36 | -29.91096 | -51.12879 | 4374 ft | 245 kts | 342° |
| 2026-05-08 12:37 | -29.89419 | -51.13275 | 5178 ft | 246 kts | 342° |
| 2026-05-08 12:37 | -29.87741 | -51.13661 | 6001 ft | 246 kts | 342° |
| 2026-05-08 12:37 | -29.86064 | -51.14038 | 6775 ft | 246 kts | 342° |
| 2026-05-08 12:37 | -29.84407 | -51.14405 | 7567 ft | 245 kts | 342° |
| 2026-05-08 12:38 | -29.82737 | -51.14775 | 8387 ft | 244 kts | 342° |
| 2026-05-08 12:38 | -29.81076 | -51.15144 | 9243 ft | 242 kts | 342° |
| 2026-05-08 12:38 | -29.79418 | -51.15514 | 10038 ft | 244 kts | 342° |
| 2026-05-08 12:38 | -29.77710 | -51.15896 | 10513 ft | 260 kts | 342° |
| 2026-05-08 12:39 | -29.75846 | -51.16329 | 10701 ft | 287 kts | 342° |
| 2026-05-08 12:39 | -29.73806 | -51.16822 | 10969 ft | 310 kts | 342° |
| 2026-05-08 12:39 | -29.71655 | -51.17347 | 11643 ft | 321 kts | 342° |
| 2026-05-08 12:39 | -29.69441 | -51.17856 | 12624 ft | 328 kts | 344° |
| 2026-05-08 12:40 | -29.67124 | -51.18043 | 13645 ft | 340 kts | 352° |
| 2026-05-08 12:40 | -29.64727 | -51.17909 | 14484 ft | 351 kts | 356° |
| 2026-05-08 12:40 | -29.62306 | -51.17505 | 15293 ft | 361 kts | 2° |
| 2026-05-08 12:40 | -29.59822 | -51.16978 | 16104 ft | 366 kts | 2° |
| 2026-05-08 12:41 | -29.57295 | -51.16443 | 16934 ft | 371 kts | 2° |
| 2026-05-08 12:41 | -29.54733 | -51.15908 | 17753 ft | 377 kts | 2° |
| 2026-05-08 12:41 | -29.52140 | -51.15368 | 18498 ft | 381 kts | 2° |
| 2026-05-08 12:41 | -29.49510 | -51.14823 | 19178 ft | 386 kts | 2° |
| 2026-05-08 12:42 | -29.46871 | -51.14276 | 19913 ft | 389 kts | 2° |
| 2026-05-08 12:42 | -29.44210 | -51.13723 | 20657 ft | 393 kts | 2° |
| 2026-05-08 12:42 | -29.41487 | -51.13161 | 21319 ft | 395 kts | 2° |
| 2026-05-08 12:42 | -29.38751 | -51.12595 | 21876 ft | 402 kts | 2° |
| 2026-05-08 12:43 | -29.35998 | -51.12026 | 22498 ft | 408 kts | 2° |
| 2026-05-08 12:43 | -29.33208 | -51.11449 | 23241 ft | 411 kts | 2° |
| 2026-05-08 12:43 | -29.30364 | -51.10863 | 23875 ft | 413 kts | 2° |
| 2026-05-08 12:43 | -29.27522 | -51.10277 | 24473 ft | 417 kts | 2° |
| 2026-05-08 12:44 | -29.24665 | -51.09688 | 25065 ft | 418 kts | 2° |
| 2026-05-08 12:44 | -29.21792 | -51.09035 | 25665 ft | 423 kts | 5° |
| 2026-05-08 12:44 | -29.18935 | -51.08082 | 26251 ft | 431 kts | 10° |
| 2026-05-08 12:44 | -29.16118 | -51.06995 | 26807 ft | 434 kts | 10° |
| 2026-05-08 12:45 | -29.13246 | -51.05892 | 27315 ft | 437 kts | 10° |
| 2026-05-08 12:45 | -29.10354 | -51.04790 | 27824 ft | 440 kts | 10° |
| 2026-05-08 12:45 | -29.07438 | -51.03684 | 28320 ft | 442 kts | 10° |
| 2026-05-08 12:45 | -29.04536 | -51.02588 | 28807 ft | 445 kts | 9° |
| 2026-05-08 12:46 | -29.01584 | -51.01477 | 29252 ft | 447 kts | 9° |
| 2026-05-08 12:46 | -28.98666 | -51.00382 | 29628 ft | 450 kts | 9° |
| 2026-05-08 12:46 | -28.95772 | -50.99295 | 30021 ft | 452 kts | 9° |
| 2026-05-08 12:46 | -28.92784 | -50.98172 | 30358 ft | 453 kts | 9° |
| 2026-05-08 12:47 | -28.89864 | -50.97075 | 30678 ft | 454 kts | 9° |
| 2026-05-08 12:47 | -28.86890 | -50.95959 | 30957 ft | 456 kts | 9° |
| 2026-05-08 12:47 | -28.83936 | -50.94845 | 31265 ft | 457 kts | 10° |
| 2026-05-08 12:47 | -28.81499 | -50.93783 | 31585 ft | 460 kts | 14° |
| 2026-05-08 12:48 | -28.78974 | -50.92443 | 31949 ft | 464 kts | 18° |
| 2026-05-08 12:48 | -28.76192 | -50.90661 | 32409 ft | 464 kts | 20° |
| 2026-05-08 12:48 | -28.73460 | -50.88896 | 32810 ft | 462 kts | 20° |
| 2026-05-08 12:48 | -28.70702 | -50.87116 | 33114 ft | 461 kts | 20° |
| 2026-05-08 12:49 | -28.68010 | -50.85393 | 33442 ft | 460 kts | 20° |
| 2026-05-08 12:49 | -28.65318 | -50.83687 | 33839 ft | 458 kts | 20° |
| 2026-05-08 12:49 | -28.62587 | -50.81959 | 34216 ft | 456 kts | 19° |
| 2026-05-08 12:49 | -28.59809 | -50.80204 | 34524 ft | 456 kts | 19° |
| 2026-05-08 12:50 | -28.57072 | -50.78475 | 34786 ft | 457 kts | 19° |
| 2026-05-08 12:50 | -28.54322 | -50.76737 | 35062 ft | 457 kts | 19° |
| 2026-05-08 12:50 | -28.51524 | -50.74969 | 35367 ft | 456 kts | 19° |
| 2026-05-08 12:50 | -28.48754 | -50.73219 | 35677 ft | 456 kts | 19° |
| 2026-05-08 12:51 | -28.45982 | -50.71469 | 35963 ft | 456 kts | 19° |
| 2026-05-08 12:51 | -28.40429 | -50.67970 | 36362 ft | 459 kts | 19° |
| 2026-05-08 12:51 | -28.37635 | -50.66209 | 36670 ft | 457 kts | 19° |
| 2026-05-08 12:52 | -28.34855 | -50.64457 | 36806 ft | 459 kts | 19° |
| 2026-05-08 12:52 | -28.26489 | -50.59196 | 36903 ft | 459 kts | 19° |
| 2026-05-08 12:53 | -28.20948 | -50.55712 | 36896 ft | 458 kts | 19° |
| 2026-05-08 12:53 | -28.15428 | -50.52248 | 36899 ft | 457 kts | 19° |
| 2026-05-08 12:54 | -28.09994 | -50.48843 | 36884 ft | 457 kts | 19° |
| 2026-05-08 12:54 | -28.04428 | -50.45364 | 36897 ft | 457 kts | 19° |
| 2026-05-08 12:55 | -27.98848 | -50.41877 | 36867 ft | 458 kts | 19° |
| 2026-05-08 12:55 | -27.94221 | -50.38987 | 36903 ft | 457 kts | 19° |
| 2026-05-08 12:56 | -27.88647 | -50.35510 | 36894 ft | 458 kts | 19° |
| 2026-05-08 12:56 | -27.83122 | -50.32068 | 36879 ft | 457 kts | 18° |
| 2026-05-08 12:57 | -27.77546 | -50.28597 | 36920 ft | 457 kts | 18° |
| 2026-05-08 12:57 | -27.72008 | -50.25156 | 36916 ft | 457 kts | 18° |
| 2026-05-08 12:58 | -27.66426 | -50.21692 | 36902 ft | 458 kts | 18° |
| 2026-05-08 12:58 | -27.60857 | -50.18238 | 36896 ft | 458 kts | 18° |
| 2026-05-08 12:59 | -27.55260 | -50.14771 | 36886 ft | 459 kts | 19° |
| 2026-05-08 12:59 | -27.49654 | -50.11302 | 36906 ft | 460 kts | 19° |
| 2026-05-08 13:00 | -27.44034 | -50.07811 | 36916 ft | 462 kts | 19° |
| 2026-05-08 13:00 | -27.38525 | -50.04360 | 36912 ft | 464 kts | 19° |
| 2026-05-08 13:01 | -27.32875 | -50.00823 | 36902 ft | 464 kts | 19° |
| 2026-05-08 13:01 | -27.27225 | -49.97297 | 36909 ft | 465 kts | 19° |
| 2026-05-08 13:02 | -27.21565 | -49.93774 | 36898 ft | 465 kts | 19° |
| 2026-05-08 13:02 | -27.15932 | -49.90291 | 36904 ft | 466 kts | 19° |
| 2026-05-08 13:03 | -27.10240 | -49.86784 | 36893 ft | 466 kts | 19° |
| 2026-05-08 13:03 | -27.04628 | -49.83328 | 36904 ft | 467 kts | 19° |
| 2026-05-08 13:04 | -27.00512 | -49.80792 | 36903 ft | 467 kts | 19° |
| 2026-05-08 13:04 | -26.94109 | -49.76849 | 36911 ft | 467 kts | 19° |
| 2026-05-08 13:05 | -26.88415 | -49.73350 | 36879 ft | 466 kts | 19° |
| 2026-05-08 13:05 | -26.82733 | -49.69859 | 36889 ft | 465 kts | 19° |
| 2026-05-08 13:06 | -26.77177 | -49.66445 | 36909 ft | 463 kts | 19° |
| 2026-05-08 13:06 | -26.71524 | -49.62990 | 36922 ft | 464 kts | 19° |
| 2026-05-08 13:07 | -26.65853 | -49.59525 | 36904 ft | 464 kts | 19° |
| 2026-05-08 13:07 | -26.60338 | -49.56152 | 36924 ft | 465 kts | 19° |
| 2026-05-08 13:08 | -26.54652 | -49.52682 | 36925 ft | 466 kts | 19° |
| 2026-05-08 13:08 | -26.48948 | -49.49204 | 36920 ft | 468 kts | 20° |
| 2026-05-08 13:09 | -26.44199 | -49.46312 | 36916 ft | 469 kts | 20° |
| 2026-05-08 13:09 | -26.37505 | -49.42238 | 36891 ft | 470 kts | 20° |
| 2026-05-08 13:10 | -26.31790 | -49.38763 | 36916 ft | 470 kts | 20° |
| 2026-05-08 13:10 | -26.26033 | -49.35266 | 36922 ft | 471 kts | 20° |
| 2026-05-08 13:11 | -26.20259 | -49.31769 | 36920 ft | 473 kts | 20° |
| 2026-05-08 13:11 | -26.15445 | -49.28852 | 36921 ft | 474 kts | 20° |
| 2026-05-08 13:12 | -26.09660 | -49.25324 | 36891 ft | 475 kts | 21° |
| 2026-05-08 13:12 | -26.03978 | -49.21538 | 36920 ft | 479 kts | 23° |
| 2026-05-08 13:13 | -25.98276 | -49.17657 | 36921 ft | 480 kts | 23° |
| 2026-05-08 13:13 | -25.92588 | -49.13837 | 36926 ft | 481 kts | 22° |
| 2026-05-08 13:14 | -25.86840 | -49.10010 | 36931 ft | 482 kts | 22° |
| 2026-05-08 13:14 | -25.81118 | -49.06202 | 36942 ft | 482 kts | 22° |
| 2026-05-08 13:15 | -25.75357 | -49.02372 | 36975 ft | 482 kts | 22° |
| 2026-05-08 13:15 | -25.69593 | -48.98538 | 36962 ft | 484 kts | 22° |
| 2026-05-08 13:16 | -25.63812 | -48.94684 | 36991 ft | 485 kts | 22° |
| 2026-05-08 13:16 | -25.58021 | -48.90828 | 36954 ft | 486 kts | 22° |
| 2026-05-08 13:17 | -25.52286 | -48.87010 | 36958 ft | 484 kts | 22° |
| 2026-05-08 13:17 | -25.46492 | -48.83177 | 36932 ft | 484 kts | 22° |
| 2026-05-08 13:18 | -25.40732 | -48.79648 | 36924 ft | 483 kts | 20° |
| 2026-05-08 13:18 | -25.35018 | -48.76239 | 36919 ft | 485 kts | 20° |
| 2026-05-08 13:19 | -25.29104 | -48.72655 | 36928 ft | 487 kts | 20° |
| 2026-05-08 13:19 | -25.23180 | -48.69059 | 36923 ft | 487 kts | 20° |
| 2026-05-08 13:20 | -25.17234 | -48.65484 | 36925 ft | 486 kts | 21° |
| 2026-05-08 13:20 | -25.11330 | -48.61940 | 36912 ft | 486 kts | 21° |
| 2026-05-08 13:21 | -25.05384 | -48.58369 | 36938 ft | 486 kts | 21° |
| 2026-05-08 13:21 | -24.99483 | -48.54835 | 36942 ft | 487 kts | 21° |
| 2026-05-08 13:22 | -24.93526 | -48.51241 | 36940 ft | 489 kts | 21° |
| 2026-05-08 13:22 | -24.87567 | -48.47636 | 36930 ft | 489 kts | 22° |
| 2026-05-08 13:23 | -24.81601 | -48.44027 | 36948 ft | 490 kts | 22° |
| 2026-05-08 13:23 | -24.75621 | -48.40418 | 36949 ft | 491 kts | 22° |
| 2026-05-08 13:24 | -24.69616 | -48.36804 | 36946 ft | 493 kts | 22° |
| 2026-05-08 13:24 | -24.63646 | -48.33211 | 36929 ft | 493 kts | 22° |
| 2026-05-08 13:25 | -24.57584 | -48.29565 | 36932 ft | 492 kts | 22° |
| 2026-05-08 13:25 | -24.51629 | -48.25987 | 36934 ft | 490 kts | 22° |
| 2026-05-08 13:26 | -24.45646 | -48.22398 | 36944 ft | 489 kts | 21° |
| 2026-05-08 13:26 | -24.39680 | -48.18821 | 36943 ft | 487 kts | 21° |
| 2026-05-08 13:27 | -24.33816 | -48.15317 | 36970 ft | 488 kts | 21° |
| 2026-05-08 13:27 | -24.27840 | -48.11785 | 36945 ft | 489 kts | 21° |
| 2026-05-08 13:28 | -24.21836 | -48.08257 | 36957 ft | 490 kts | 21° |
| 2026-05-08 13:28 | -24.15828 | -48.04726 | 36961 ft | 490 kts | 21° |
| 2026-05-08 13:29 | -24.09842 | -48.01203 | 36975 ft | 491 kts | 21° |
| 2026-05-08 13:29 | -24.03809 | -47.97660 | 36964 ft | 493 kts | 21° |
| 2026-05-08 13:30 | -23.97769 | -47.94115 | 36949 ft | 493 kts | 21° |
| 2026-05-08 13:30 | -23.94697 | -47.92318 | 35918 ft | 506 kts | 21° |
| 2026-05-08 13:30 | -23.91604 | -47.90506 | 35072 ft | 505 kts | 21° |
| 2026-05-08 13:31 | -23.88503 | -47.88687 | 34190 ft | 507 kts | 21° |
| 2026-05-08 13:31 | -23.85392 | -47.86863 | 33192 ft | 508 kts | 21° |
| 2026-05-08 13:31 | -23.82267 | -47.85033 | 32183 ft | 509 kts | 21° |
| 2026-05-08 13:31 | -23.79155 | -47.83212 | 31174 ft | 509 kts | 21° |
| 2026-05-08 13:32 | -23.76067 | -47.81310 | 30314 ft | 512 kts | 27° |
| 2026-05-08 13:32 | -23.73327 | -47.78840 | 29540 ft | 516 kts | 39° |
| 2026-05-08 13:32 | -23.70903 | -47.76025 | 28718 ft | 513 kts | 42° |
| 2026-05-08 13:32 | -23.68452 | -47.73218 | 27962 ft | 507 kts | 40° |
| 2026-05-08 13:33 | -23.65954 | -47.70533 | 27230 ft | 502 kts | 39° |
| 2026-05-08 13:33 | -23.63448 | -47.67919 | 26749 ft | 492 kts | 38° |
| 2026-05-08 13:33 | -23.61007 | -47.65371 | 26397 ft | 479 kts | 38° |
| 2026-05-08 13:33 | -23.58626 | -47.62878 | 26052 ft | 471 kts | 38° |
| 2026-05-08 13:34 | -23.56256 | -47.60398 | 25714 ft | 474 kts | 38° |
| 2026-05-08 13:34 | -23.53867 | -47.57900 | 25366 ft | 476 kts | 39° |
| 2026-05-08 13:34 | -23.51489 | -47.55407 | 25017 ft | 472 kts | 39° |
| 2026-05-08 13:34 | -23.49136 | -47.52937 | 24671 ft | 468 kts | 39° |
| 2026-05-08 13:35 | -23.46799 | -47.50483 | 24329 ft | 464 kts | 39° |
| 2026-05-08 13:35 | -23.44479 | -47.48052 | 23985 ft | 461 kts | 39° |
| 2026-05-08 13:35 | -23.42200 | -47.45666 | 23635 ft | 459 kts | 39° |
| 2026-05-08 13:35 | -23.39903 | -47.43261 | 23247 ft | 456 kts | 39° |
| 2026-05-08 13:36 | -23.37623 | -47.40877 | 22893 ft | 453 kts | 39° |
| 2026-05-08 13:36 | -23.35371 | -47.38523 | 22615 ft | 448 kts | 39° |
| 2026-05-08 13:36 | -23.33125 | -47.36174 | 22336 ft | 445 kts | 39° |
| 2026-05-08 13:36 | -23.30900 | -47.33851 | 22064 ft | 443 kts | 39° |
| 2026-05-08 13:37 | -23.28681 | -47.31534 | 21791 ft | 441 kts | 39° |
| 2026-05-08 13:37 | -23.26467 | -47.29222 | 21523 ft | 440 kts | 39° |
| 2026-05-08 13:37 | -23.24260 | -47.26920 | 21253 ft | 438 kts | 40° |
| 2026-05-08 13:37 | -23.22067 | -47.24631 | 20985 ft | 436 kts | 40° |
| 2026-05-08 13:38 | -23.19882 | -47.22353 | 20737 ft | 434 kts | 40° |
| 2026-05-08 13:38 | -23.17704 | -47.20084 | 20463 ft | 432 kts | 40° |
| 2026-05-08 13:38 | -23.15568 | -47.17858 | 20209 ft | 430 kts | 40° |
| 2026-05-08 13:38 | -23.13434 | -47.15593 | 19952 ft | 428 kts | 43° |
| 2026-05-08 13:39 | -23.11415 | -47.13217 | 19691 ft | 426 kts | 45° |
| 2026-05-08 13:39 | -23.09442 | -47.10827 | 19434 ft | 423 kts | 45° |
| 2026-05-08 13:39 | -23.07471 | -47.08469 | 19159 ft | 420 kts | 44° |
| 2026-05-08 13:39 | -23.05495 | -47.06132 | 18600 ft | 420 kts | 44° |
| 2026-05-08 13:40 | -23.03519 | -47.03809 | 17962 ft | 417 kts | 44° |
| 2026-05-08 13:40 | -23.01555 | -47.01501 | 17332 ft | 414 kts | 44° |
| 2026-05-08 13:40 | -22.99618 | -46.99223 | 16721 ft | 409 kts | 44° |
| 2026-05-08 13:40 | -22.97695 | -46.96963 | 16154 ft | 405 kts | 44° |
| 2026-05-08 13:41 | -22.95812 | -46.94751 | 15632 ft | 401 kts | 44° |
| 2026-05-08 13:41 | -22.93931 | -46.92542 | 15097 ft | 396 kts | 44° |
| 2026-05-08 13:41 | -22.92070 | -46.90356 | 14596 ft | 393 kts | 44° |
| 2026-05-08 13:41 | -22.90230 | -46.88195 | 14287 ft | 384 kts | 44° |
| 2026-05-08 13:42 | -22.88443 | -46.86098 | 14097 ft | 372 kts | 44° |
| 2026-05-08 13:42 | -22.86747 | -46.84055 | 14067 ft | 356 kts | 47° |
| 2026-05-08 13:42 | -22.85438 | -46.81843 | 14069 ft | 343 kts | 58° |
| 2026-05-08 13:42 | -22.84412 | -46.79654 | 14056 ft | 329 kts | 59° |
| 2026-05-08 13:43 | -22.83394 | -46.77491 | 14057 ft | 315 kts | 58° |
| 2026-05-08 13:43 | -22.82374 | -46.75412 | 14064 ft | 312 kts | 57° |
| 2026-05-08 13:43 | -22.81345 | -46.73341 | 14072 ft | 311 kts | 59° |
| 2026-05-08 13:43 | -22.80569 | -46.71129 | 14076 ft | 316 kts | 69° |
| 2026-05-08 13:44 | -22.79991 | -46.68814 | 14078 ft | 318 kts | 71° |
| 2026-05-08 13:44 | -22.79410 | -46.66495 | 14084 ft | 319 kts | 70° |
| 2026-05-08 13:44 | -22.78801 | -46.64177 | 14087 ft | 320 kts | 70° |
| 2026-05-08 13:44 | -22.78285 | -46.61843 | 14078 ft | 320 kts | 79° |
| 2026-05-08 13:45 | -22.78137 | -46.59423 | 14092 ft | 323 kts | 84° |
| 2026-05-08 13:45 | -22.78066 | -46.56991 | 14087 ft | 324 kts | 84° |
| 2026-05-08 13:45 | -22.77969 | -46.54558 | 14095 ft | 323 kts | 82° |
| 2026-05-08 13:45 | -22.77860 | -46.52165 | 14091 ft | 322 kts | 85° |
| 2026-05-08 13:46 | -22.78064 | -46.49743 | 14093 ft | 326 kts | 95° |
| 2026-05-08 13:46 | -22.78496 | -46.47322 | 14110 ft | 327 kts | 96° |
| 2026-05-08 13:46 | -22.78929 | -46.44897 | 14098 ft | 328 kts | 96° |
| 2026-05-08 13:46 | -22.79331 | -46.42463 | 14105 ft | 327 kts | 96° |
| 2026-05-08 13:47 | -22.79904 | -46.40084 | 14115 ft | 328 kts | 108° |
| 2026-05-08 13:47 | -22.80833 | -46.37815 | 14117 ft | 331 kts | 112° |
| 2026-05-08 13:47 | -22.81940 | -46.35646 | 14082 ft | 330 kts | 126° |
| 2026-05-08 13:47 | -22.83716 | -46.34046 | 14105 ft | 345 kts | 153° |
| 2026-05-08 13:48 | -22.85973 | -46.33287 | 14041 ft | 347 kts | 175° |
| 2026-05-08 13:48 | -22.88355 | -46.33543 | 13677 ft | 346 kts | 202° |
| 2026-05-08 13:48 | -22.90455 | -46.34696 | 13359 ft | 332 kts | 215° |
| 2026-05-08 13:48 | -22.92413 | -46.36001 | 13042 ft | 328 kts | 216° |
| 2026-05-08 13:49 | -22.94334 | -46.37300 | 12783 ft | 323 kts | 216° |
| 2026-05-08 13:49 | -22.96233 | -46.38583 | 12505 ft | 318 kts | 216° |
| 2026-05-08 13:49 | -22.98105 | -46.39842 | 12231 ft | 314 kts | 216° |
| 2026-05-08 13:49 | -22.99955 | -46.41081 | 11956 ft | 310 kts | 216° |
| 2026-05-08 13:50 | -23.01780 | -46.42300 | 11693 ft | 306 kts | 216° |
| 2026-05-08 13:50 | -23.03591 | -46.43507 | 11437 ft | 306 kts | 216° |
| 2026-05-08 13:50 | -23.05416 | -46.44722 | 11175 ft | 309 kts | 216° |
| 2026-05-08 13:50 | -23.07264 | -46.45950 | 10909 ft | 313 kts | 217° |
| 2026-05-08 13:51 | -23.09125 | -46.47188 | 10641 ft | 313 kts | 216° |
| 2026-05-08 13:51 | -23.10960 | -46.48405 | 10367 ft | 309 kts | 217° |
| 2026-05-08 13:51 | -23.12783 | -46.49612 | 10116 ft | 305 kts | 217° |
| 2026-05-08 13:51 | -23.14587 | -46.50813 | 9838 ft | 302 kts | 217° |
| 2026-05-08 13:52 | -23.16374 | -46.52003 | 9541 ft | 299 kts | 217° |
| 2026-05-08 13:52 | -23.18135 | -46.53169 | 9273 ft | 294 kts | 218° |
| 2026-05-08 13:52 | -23.19869 | -46.54321 | 9040 ft | 291 kts | 217° |
| 2026-05-08 13:52 | -23.21584 | -46.55478 | 8788 ft | 289 kts | 220° |
| 2026-05-08 13:53 | -23.23253 | -46.56663 | 8538 ft | 285 kts | 219° |
| 2026-05-08 13:53 | -23.24903 | -46.57840 | 8306 ft | 281 kts | 220° |
| 2026-05-08 13:53 | -23.26523 | -46.58994 | 8069 ft | 277 kts | 220° |
| 2026-05-08 13:53 | -23.27795 | -46.59901 | 7912 ft | 274 kts | 220° |
| 2026-05-08 13:54 | -23.29369 | -46.61022 | 7676 ft | 274 kts | 220° |
| 2026-05-08 13:54 | -23.30984 | -46.62170 | 7457 ft | 274 kts | 220° |
| 2026-05-08 13:54 | -23.32575 | -46.63294 | 7243 ft | 272 kts | 220° |
| 2026-05-08 13:54 | -23.34153 | -46.64415 | 7060 ft | 269 kts | 221° |
| 2026-05-08 13:55 | -23.35709 | -46.65524 | 6858 ft | 267 kts | 221° |
| 2026-05-08 13:55 | -23.37271 | -46.66638 | 6680 ft | 271 kts | 221° |
| 2026-05-08 13:55 | -23.40439 | -46.68896 | 6260 ft | 271 kts | 221° |
| 2026-05-08 13:56 | -23.42032 | -46.69964 | 6083 ft | 271 kts | 211° |
| 2026-05-08 13:56 | -23.43944 | -46.70251 | 5892 ft | 289 kts | 174° |
| 2026-05-08 13:56 | -23.45917 | -46.69762 | 5685 ft | 291 kts | 167° |
| 2026-05-08 13:56 | -23.47740 | -46.68928 | 5447 ft | 284 kts | 140° |
| 2026-05-08 13:57 | -23.48981 | -46.67359 | 5230 ft | 265 kts | 109° |
| 2026-05-08 13:57 | -23.49317 | -46.65548 | 5080 ft | 225 kts | 73° |
| 2026-05-08 13:57 | -23.48820 | -46.64164 | 5022 ft | 182 kts | 43° |
| 2026-05-08 13:57 | -23.48110 | -46.63022 | 5028 ft | 184 kts | 52° |
| 2026-05-08 13:58 | -23.47586 | -46.61766 | 4869 ft | 185 kts | 57° |
| 2026-05-08 13:58 | -23.47102 | -46.60466 | 4656 ft | 183 kts | 59° |
| 2026-05-08 13:58 | -23.46698 | -46.59165 | 4427 ft | 181 kts | 63° |
| 2026-05-08 13:58 | -23.46345 | -46.57863 | 4179 ft | 181 kts | 64° |
| 2026-05-08 13:59 | -23.46009 | -46.56602 | 3930 ft | 165 kts | 64° |
| 2026-05-08 13:59 | -23.45701 | -46.55457 | 3741 ft | 151 kts | 63° |
| 2026-05-08 13:59 | -23.45510 | -46.54755 | 3578 ft | 142 kts | 65° |
| 2026-05-08 13:59 | -23.45133 | -46.53360 | 3385 ft | 144 kts | 66° |
| 2026-05-08 14:00 | -23.44953 | -46.52689 | 3277 ft | 137 kts | 67° |
| 2026-05-08 14:00 | -23.44679 | -46.51670 | 3105 ft | 142 kts | 66° |
| 2026-05-08 14:00 | -23.44408 | -46.50676 | 2847 ft | 133 kts | 69° |
| 2026-05-08 14:00 | -23.44164 | -46.49691 | 2721 ft | 135 kts | 66° |
| 2026-05-08 14:01 | -23.43886 | -46.48714 | 2517 ft | 137 kts | 67° |
| 2026-05-08 14:01 | -23.43633 | -46.47792 | 2478 ft | 116 kts | 68° |
| 2026-05-08 14:01 | -23.43424 | -46.47041 | 2478 ft | 89 kts | 74° |
| 2026-05-08 14:01 | -23.43337 | -46.46707 | 2475 ft | 28 kts | 73° |
| 2026-05-08 14:02 | -23.43302 | -46.46577 | 2477 ft | 21 kts | 73° |
| 2026-05-08 14:02 | -23.43259 | -46.46429 | 2476 ft | 21 kts | 72° |
| 2026-05-08 14:02 | -23.43209 | -46.46328 | 2479 ft | 12 kts | 37° |
| 2026-05-08 14:02 | -23.43142 | -46.46275 | 2478 ft | 12 kts | 36° |
| 2026-05-08 14:03 | -23.43077 | -46.46221 | 2478 ft | 12 kts | 39° |
| 2026-05-08 14:03 | -23.43012 | -46.46165 | 2478 ft | 12 kts | 38° |
| 2026-05-08 14:03 | -23.42936 | -46.46138 | 2478 ft | 12 kts | 358° |
| 2026-05-08 14:03 | -23.42856 | -46.46162 | 2476 ft | 12 kts | 338° |
| 2026-05-08 14:04 | -23.42780 | -46.46196 | 2478 ft | 12 kts | 338° |
| 2026-05-08 14:04 | -23.42707 | -46.46231 | 2474 ft | 6 kts | 323° |
| 2026-05-08 14:04 | -23.42701 | -46.46269 | 2477 ft | 6 kts | 254° |
| 2026-05-08 14:04 | -23.42711 | -46.46311 | 2478 ft | 6 kts | 254° |
| 2026-05-08 14:05 | -23.42722 | -46.46352 | 2476 ft | 6 kts | 254° |
| 2026-05-08 14:05 | -23.42733 | -46.46394 | 2476 ft | 6 kts | 255° |
| 2026-05-08 14:05 | -23.42743 | -46.46435 | 2477 ft | 6 kts | 255° |
| 2026-05-08 14:05 | -23.42753 | -46.46476 | 2475 ft | 6 kts | 255° |
| 2026-05-08 14:06 | -23.42764 | -46.46519 | 2473 ft | 6 kts | 255° |
| 2026-05-08 14:06 | -23.42774 | -46.46560 | 2473 ft | 6 kts | 255° |
| 2026-05-08 14:06 | -23.42784 | -46.46602 | 2478 ft | 6 kts | 255° |
| 2026-05-08 14:06 | -23.42794 | -46.46644 | 2477 ft | 6 kts | 256° |
| 2026-05-08 14:07 | -23.42804 | -46.46686 | 2477 ft | 6 kts | 251° |
| 2026-05-08 14:07 | -23.42817 | -46.46726 | 2477 ft | 6 kts | 251° |
| 2026-05-08 14:07 | -23.42829 | -46.46767 | 2475 ft | 6 kts | 251° |
| 2026-05-08 14:07 | -23.42842 | -46.46808 | 2475 ft | 6 kts | 252° |
| 2026-05-08 14:08 | -23.42854 | -46.46849 | 2476 ft | 6 kts | 252° |
| 2026-05-08 14:08 | -23.42866 | -46.46890 | 2473 ft | 6 kts | 252° |
| 2026-05-08 14:08 | -23.42878 | -46.46931 | 2477 ft | 6 kts | 252° |
| 2026-05-08 14:08 | -23.42890 | -46.46972 | 2477 ft | 6 kts | 253° |
| 2026-05-08 14:09 | -23.42901 | -46.47014 | 2475 ft | 6 kts | 253° |
| 2026-05-08 14:09 | -23.42913 | -46.47055 | 2476 ft | 6 kts | 253° |
| 2026-05-08 14:09 | -23.42924 | -46.47095 | 2478 ft | 6 kts | 253° |
| 2026-05-08 14:09 | -23.42936 | -46.47137 | 2477 ft | 6 kts | 253° |
| 2026-05-08 14:10 | -23.42947 | -46.47179 | 2476 ft | 6 kts | 253° |
| 2026-05-08 14:10 | -23.42958 | -46.47220 | 2474 ft | 6 kts | 254° |
| 2026-05-08 14:10 | -23.42969 | -46.47261 | 2477 ft | 6 kts | 254° |
| 2026-05-08 14:10 | -23.42980 | -46.47302 | 2472 ft | 6 kts | 254° |
| 2026-05-08 14:11 | -23.42990 | -46.47344 | 2474 ft | 6 kts | 255° |
| 2026-05-08 14:11 | -23.43001 | -46.47385 | 2475 ft | 6 kts | 255° |
| 2026-05-08 14:11 | -23.43004 | -46.47427 | 2475 ft | 6 kts | 291° |
| 2026-05-08 14:11 | -23.42970 | -46.47451 | 2477 ft | 6 kts | 331° |
| 2026-05-08 14:12 | -23.42931 | -46.47469 | 2477 ft | 6 kts | 343° |
| 2026-05-08 14:12 | -23.42891 | -46.47483 | 2476 ft | 6 kts | 343° |
| 2026-05-08 14:12 | -23.42856 | -46.47469 | 2478 ft | 6 kts | 64° |
| 2026-05-08 14:12 | -23.42843 | -46.47424 | 2474 ft | 6 kts | 73° |
| 2026-05-08 14:13 | -23.42833 | -46.47394 | 2475 ft | 0 kts | 69° |
| 2026-05-08 14:13 | -23.42832 | -46.47390 | 2474 ft | 0 kts | 69° |
| 2026-05-08 14:13 | -23.42832 | -46.47391 | 2474 ft | 0 kts | 69° |